Dellrose, Tennessee
Current Conditions -  °F | °C
As of 8:15 AM on Thursday 23 Oct 2014 (Local Time) from KFYM Reporting Station
Clear Clear  
Wind Chill: 36°   Ceiling: Unl
Heat Index: 41°   Visibility: 10mi
Dew Point: 37°   Wind: 7mph
Humidity: 87%   Direction: 40°NE
Pressure: 30.18"   Gusts: NA
Location:  35.11°N, 86.8°W
Report Text: KFYM 231315Z AUTO 04006KT 10SM CLR 05/03 A3018 RMK
Loading
Personal Weather Stations






























Interactive Weather Map
Tropical Storm Tracking
New forecast layout! Learn more

10-Day Weather Forecast

Advertisements
Track Severe Weather on mobile